| Date | Time | Temp. (oF) | Dew Point (oF) | Rel. Hum. (%) | Press. (in.) | Wind Dir. | Wind Speed (mph) | Hourly Rainfall (in.) |
|
|---|---|---|---|---|---|---|---|---|---|
| 1 | 11/03 | 00:00 | 43 | 39 | 89 | 30.06 | W | 0 | 0.00 |
| 2 | 11/02 | 23:00 | 44 | 40 | 88 | 30.07 | SSE | 0 | 0.00 |
| 3 | 11/02 | 22:00 | 46 | 42 | 88 | 30.07 | S | 0 | 0.00 |
| 4 | 11/02 | 21:00 | 47 | 42 | 85 | 30.06 | SSW | 0 | 0.00 |
| 5 | 11/02 | 20:00 | 49 | 43 | 82 | 30.06 | SW | 0 | 0.00 |
| 6 | 11/02 | 19:00 | 52 | 45 | 78 | 30.05 | NNE | 0 | 0.00 |
| 7 | 11/02 | 18:00 | 55 | 44 | 69 | 30.03 | SSW | 0 | 0.00 |
| 8 | 11/02 | 17:00 | 60 | 46 | 61 | 30.01 | ENE | 0 | 0.00 |
| 9 | 11/02 | 16:00 | 61 | 46 | 58 | 29.99 | NNE | 0 | 0.00 |
| 10 | 11/02 | 15:00 | 62 | 44 | 53 | 29.99 | SW | 3 | 0.00 |
| 11 | 11/02 | 14:00 | 63 | 46 | 54 | 29.99 | SW | 4 | 0.00 |
| 12 | 11/02 | 13:00 | 62 | 47 | 60 | 30.02 | W | 3 | 0.00 |
| 13 | 11/02 | 12:00 | 60 | 48 | 65 | 30.00 | NE | 0 | 0.00 |
| 14 | 11/02 | 11:00 | 58 | 50 | 77 | 30.03 | NNE | 0 | 0.00 |
| 15 | 11/02 | 10:00 | 54 | 50 | 87 | 30.05 | SSW | 0 | 0.00 |
| 16 | 11/02 | 09:00 | 51 | 47 | 89 | 30.04 | SSW | 0 | 0.00 |
| 17 | miss | miss | miss | miss | miss | miss | miss | miss | |
| 18 | 11/02 | 09:19 | 48 | 45 | 90 | 30.03 | SSW | 0 | 0.00 |
| 19 | miss | miss | miss | miss | miss | miss | miss | miss | |
| 20 | 11/02 | 09:17 | 48 | 45 | 90 | 30.02 | SSW | 0 | 0.00 |
| 21 | miss | miss | miss | miss | miss | miss | miss | miss | |
| 22 | 11/02 | 09:15 | 48 | 45 | 90 | 30.03 | SSW | 0 | 0.00 |
| 23 | miss | miss | miss | miss | miss | miss | miss | miss | |
| 24 | 11/02 | 09:13 | 48 | 45 | 90 | 30.03 | SSW | 0 | 0.00 |
| 25 | miss | miss | miss | miss | miss | miss | miss | miss | |
| 26 | 11/02 | 09:12 | 48 | 45 | 90 | 30.03 | SSW | 0 | 0.00 |
| 27 | miss | miss | miss | miss | miss | miss | miss | miss | |
| 28 | 11/02 | 09:12 | 48 | 45 | 90 | 30.03 | SSW | 0 | 0.00 |
| 29 | miss | miss | miss | miss | miss | miss | miss | miss | |
| 30 | 11/02 | 09:12 | 48 | 45 | 90 | 30.03 | SSW | 0 | 0.00 |
| 31 | miss | miss | miss | miss | miss | miss | miss | miss | |
| 32 | 11/02 | 09:12 | 48 | 45 | 90 | 30.03 | SSW | 0 | 0.00 |
| 33 | miss | miss | miss | miss | miss | miss | miss | miss | |
| 34 | 11/02 | 09:12 | 48 | 45 | 90 | 30.03 | SSW | 0 | 0.00 |
| 35 | miss | miss | miss | miss | miss | miss | miss | miss | |
| 36 | 11/02 | 09:12 | 48 | 45 | 90 | 30.03 | SSW | 0 | 0.00 |
| 37 | miss | miss | miss | miss | miss | miss | miss | miss | |
| 38 | 11/02 | 09:12 | 48 | 45 | 90 | 30.03 | SSW | 0 | 0.00 |
| 39 | miss | miss | miss | miss | miss | miss | miss | miss | |
| 40 | 11/02 | 09:00 | 47 | 44 | 90 | 30.03 | SSW | 0 | 0.00 |
| 41 | 11/02 | 08:00 | 46 | 43 | 90 | 30.01 | SW | 0 | 0.00 |
| 42 | 11/02 | 07:00 | 46 | 42 | 89 | 30.00 | SSW | 0 | 0.00 |
| 43 | 11/02 | 06:00 | 47 | 43 | 89 | 29.99 | NNW | 0 | 0.00 |
| 44 | 11/02 | 05:00 | 48 | 44 | 89 | 29.98 | E | 0 | 0.00 |
| 45 | 11/02 | 04:00 | 48 | 44 | 89 | 29.97 | W | 0 | 0.00 |
| 46 | 11/02 | 03:00 | 49 | 45 | 88 | 29.97 | SSW | 0 | 0.00 |
| 47 | 11/02 | 02:00 | 49 | 45 | 87 | 29.96 | S | 0 | 0.00 |
| 48 | 11/02 | 01:00 | 51 | 47 | 87 | 29.96 | S | 0 | 0.00 |
| 49 | 11/02 | 00:00 | 51 | 46 | 85 | 29.97 | S | 0 | 0.00 |
| 50 | 11/01 | 23:00 | 53 | 48 | 85 | 29.95 | WSW | 0 | 0.00 |
| 51 | 11/01 | 22:00 | 54 | 48 | 81 | 29.93 | SW | 0 | 0.00 |
| 52 | 11/01 | 21:00 | 56 | 49 | 79 | 29.90 | WSW | 0 | 0.00 |
| 53 | 11/01 | 20:00 | 58 | 49 | 74 | 29.90 | SW | 0 | 0.00 |
| 54 | 11/01 | 19:00 | 60 | 50 | 70 | 29.87 | S | 3 | 0.00 |
| 55 | 11/01 | 18:00 | 63 | 50 | 64 | 29.84 | SSW | 2 | 0.00 |
| 56 | 11/01 | 17:00 | 65 | 50 | 59 | 29.82 | SW | 4 | 0.00 |
| 57 | 11/01 | 16:00 | 66 | 50 | 57 | 29.81 | SSW | 4 | 0.00 |
| 58 | 11/01 | 15:00 | 67 | 52 | 59 | 29.81 | WSW | 8 | 0.00 |
| 59 | 11/01 | 14:00 | 65 | 52 | 63 | 29.82 | SW | 9 | 0.00 |
| 60 | 11/01 | 13:00 | 64 | 51 | 65 | 29.83 | SSW | 8 | 0.00 |
| 61 | 11/01 | 12:00 | 61 | 51 | 72 | 29.85 | SW | 7 | 0.00 |
| 62 | 11/01 | 11:00 | 57 | 49 | 76 | 29.86 | SSW | 6 | 0.00 |
| 63 | 11/01 | 10:00 | 55 | 47 | 77 | 29.87 | SW | 7 | 0.00 |
| 64 | 11/01 | 09:00 | 53 | 45 | 76 | 29.86 | SSW | 5 | 0.00 |
| 65 | 11/01 | 08:00 | 52 | 44 | 76 | 29.86 | SSW | 3 | 0.00 |
| 66 | 11/01 | 07:00 | 52 | 44 | 75 | 29.86 | SSW | 2 | 0.00 |
| 67 | 11/01 | 06:00 | 51 | 42 | 74 | 29.87 | S | 9 | 0.00 |
| 68 | 11/01 | 05:00 | 51 | 42 | 73 | 29.87 | S | 7 | 0.00 |
| 69 | 11/01 | 04:00 | 50 | 42 | 75 | 29.90 | S | 3 | 0.00 |
| 70 | 11/01 | 03:00 | 50 | 41 | 73 | 29.95 | SSW | 0 | 0.00 |
| 71 | 11/01 | 02:00 | 50 | 42 | 74 | 29.93 | S | 2 | 0.00 |
| 72 | 11/01 | 01:00 | 48 | 41 | 77 | 29.95 | S | 3 | 0.00 |